Time;durP1;ratioP1;P1;durP2;ratioP2;P2;SDS_P1;SDS_P2;PMS_P1;PMS_P2;Temp;Humidity;BMP_temperature;BMP_pressure;BME280_temperature;BME280_humidity;BME280_pressure;Samples;Min_cycle;Max_cycle;Signal;HPM_P1;HPM_P2
2021/12/07 00:00:17;;;;;;;10.17;7.27;;;0.50;99.90;;;;;;7370348;19;20328;-83
2021/12/07 00:02:43;;;;;;;11.68;9.00;;;0.40;99.90;;;;;;7393537;19;20392;-81
2021/12/07 00:05:09;;;;;;;13.73;8.75;;;0.40;99.90;;;;;;7392169;19;20320;-79
2021/12/07 00:07:34;;;;;;;12.05;8.15;;;0.30;99.90;;;;;;7393092;19;20320;-80
2021/12/07 00:10:00;;;;;;;9.33;7.63;;;0.30;99.90;;;;;;7388994;19;20300;-80
2021/12/07 00:12:33;;;;;;;8.60;6.60;;;0.40;99.90;;;;;;7391652;19;20320;-80
2021/12/07 00:15:02;;;;;;;11.32;8.73;;;0.30;99.90;;;;;;7392478;19;20733;-80
2021/12/07 00:17:28;;;;;;;8.35;7.55;;;0.30;99.90;;;;;;7395190;19;20362;-80
2021/12/07 00:19:53;;;;;;;8.45;7.63;;;0.30;99.90;;;;;;7400961;19;20320;-83
2021/12/07 00:22:19;;;;;;;11.40;7.57;;;0.30;99.90;;;;;;7410312;19;20305;-81
2021/12/07 00:24:45;;;;;;;9.73;8.30;;;0.30;99.90;;;;;;7407226;19;20343;-81
2021/12/07 00:27:10;;;;;;;7.40;6.07;;;0.20;99.90;;;;;;7402615;19;20349;-80
2021/12/07 00:29:36;;;;;;;10.50;8.30;;;0.20;99.90;;;;;;7383749;19;20421;-80
2021/12/07 00:32:20;;;;;;;11.75;8.35;;;0.20;99.90;;;;;;7390157;19;20340;-81
2021/12/07 00:37:33;;;;;;;12.10;9.67;;;0.20;99.90;;;;;;7288416;19;2008650;-80
2021/12/07 00:39:59;;;;;;;8.20;7.40;;;0.10;99.90;;;;;;7391089;19;20320;-80
2021/12/07 00:42:24;;;;;;;10.32;6.57;;;0.10;99.90;;;;;;7389894;19;20315;-80
2021/12/07 00:44:50;;;;;;;10.13;7.78;;;0.20;99.90;;;;;;7391893;19;20409;-80
2021/12/07 00:47:16;;;;;;;9.83;7.77;;;0.20;99.90;;;;;;7391905;19;20344;-81
2021/12/07 00:49:41;;;;;;;9.52;8.05;;;0.20;99.90;;;;;;7390461;19;20866;-81
2021/12/07 00:52:07;;;;;;;9.00;6.85;;;0.20;99.90;;;;;;7394410;19;20374;-81
2021/12/07 00:54:33;;;;;;;9.73;8.17;;;0.20;99.90;;;;;;7390894;19;20319;-81
2021/12/07 00:56:59;;;;;;;10.55;8.05;;;0.20;99.90;;;;;;7388604;19;20325;-82
2021/12/07 00:59:25;;;;;;;9.68;8.18;;;0.20;99.90;;;;;;7390249;19;21192;-81
2021/12/07 01:01:52;;;;;;;8.32;7.50;;;0.20;99.90;;;;;;7388448;19;20396;-81
2021/12/07 01:04:18;;;;;;;11.07;7.68;;;0.10;99.90;;;;;;7390191;19;20319;-79
2021/12/07 01:07:00;;;;;;;11.00;8.23;;;0.20;99.90;;;;;;7405870;19;20344;-83
2021/12/07 01:09:37;;;;;;;9.17;6.77;;;0.10;99.90;;;;;;7306212;19;2008468;-81
2021/12/07 01:25:49;;;;;;;9.40;8.27;;;0.10;99.90;;;;;;7294605;19;2011538;-80
2021/12/07 01:28:28;;;;;;;9.65;7.47;;;0.00;99.90;;;;;;7398862;19;20324;-81
2021/12/07 01:31:15;;;;;;;8.57;7.78;;;0.00;99.90;;;;;;7398073;19;20309;-80
2021/12/07 01:33:58;;;;;;;9.37;7.80;;;0.00;99.90;;;;;;7296927;19;2004816;-82
2021/12/07 01:36:47;;;;;;;10.82;7.88;;;0.00;99.90;;;;;;7295094;19;2010581;-81
2021/12/07 01:45:17;;;;;;;9.73;8.45;;;-0.10;99.90;;;;;;7297231;19;2008254;-80
2021/12/07 01:47:54;;;;;;;10.05;7.85;;;-0.20;99.90;;;;;;7294280;19;2011662;-80
2021/12/07 01:52:58;;;;;;;10.98;8.30;;;-0.20;99.90;;;;;;7382343;19;20320;-80
2021/12/07 02:00:44;;;;;;;7.80;6.77;;;-0.20;99.90;;;;;;7395639;19;20305;-82
2021/12/07 02:03:09;;;;;;;10.85;8.38;;;-0.20;99.90;;;;;;7394474;19;20868;-81
2021/12/07 02:05:35;;;;;;;8.93;7.68;;;-0.20;99.90;;;;;;7395024;19;20301;-82
2021/12/07 02:08:02;;;;;;;9.98;8.32;;;-0.20;99.90;;;;;;7396477;19;20333;-84
2021/12/07 02:10:30;;;;;;;7.80;6.73;;;-0.20;99.90;;;;;;7395174;19;20366;-81
2021/12/07 02:13:06;;;;;;;10.52;7.85;;;-0.20;99.90;;;;;;7295128;19;2004497;-80
2021/12/07 02:15:33;;;;;;;9.50;7.32;;;-0.30;99.90;;;;;;7398193;19;20320;-81
2021/12/07 02:18:00;;;;;;;10.70;8.13;;;-0.30;99.90;;;;;;7396877;19;20406;-81
2021/12/07 02:20:28;;;;;;;7.32;6.63;;;-0.30;99.90;;;;;;7394918;19;20317;-82
2021/12/07 02:22:55;;;;;;;7.35;6.57;;;-0.20;99.90;;;;;;7402607;19;20314;-81
2021/12/07 02:25:21;;;;;;;8.52;7.03;;;-0.20;99.90;;;;;;7401604;19;20324;-82
2021/12/07 02:27:47;;;;;;;8.55;6.65;;;-0.20;99.90;;;;;;7401439;19;20308;-82
2021/12/07 02:30:15;;;;;;;7.32;6.53;;;-0.20;99.90;;;;;;7399517;19;20341;-82
2021/12/07 02:32:42;;;;;;;6.75;6.10;;;-0.20;99.90;;;;;;7392107;19;20875;-80
2021/12/07 02:35:14;;;;;;;9.50;7.82;;;-0.20;99.90;;;;;;7395799;19;20325;-81
2021/12/07 02:37:40;;;;;;;10.15;6.88;;;-0.20;99.90;;;;;;7399191;19;20317;-82
2021/12/07 02:40:07;;;;;;;6.88;5.72;;;0.00;99.90;;;;;;7399856;19;20352;-81
2021/12/07 02:42:34;;;;;;;6.80;6.10;;;-0.10;99.90;;;;;;7397645;19;20319;-83
2021/12/07 02:44:59;;;;;;;8.00;6.07;;;-0.10;99.90;;;;;;7399542;19;20313;-83
2021/12/07 02:47:26;;;;;;;6.75;5.68;;;-0.10;99.90;;;;;;7397935;19;20662;-81
2021/12/07 02:49:51;;;;;;;8.10;7.00;;;-0.10;99.90;;;;;;7398486;19;20317;-82
2021/12/07 02:52:17;;;;;;;7.95;6.70;;;-0.10;99.90;;;;;;7399385;19;20297;-81
2021/12/07 02:54:45;;;;;;;9.27;7.43;;;-0.20;99.90;;;;;;7396802;19;20321;-81
2021/12/07 02:57:17;;;;;;;10.15;7.18;;;-0.20;99.90;;;;;;7397519;19;20779;-81
2021/12/07 02:59:52;;;;;;;9.60;6.80;;;-0.30;99.90;;;;;;7393267;19;20317;-84
2021/12/07 03:02:21;;;;;;;10.17;7.60;;;-0.20;99.90;;;;;;7398679;19;20351;-81
2021/12/07 03:05:10;;;;;;;12.15;8.80;;;-0.30;99.90;;;;;;7396275;19;20786;-81
2021/12/07 03:26:24;;;;;;;10.20;7.82;;;-0.30;99.90;;;;;;7395128;19;20326;-82
2021/12/07 03:28:52;;;;;;;9.52;7.28;;;-0.40;99.90;;;;;;7395532;19;20301;-82
2021/12/07 03:31:25;;;;;;;8.60;6.70;;;-0.40;99.90;;;;;;7394515;19;21078;-81
2021/12/07 03:33:53;;;;;;;7.60;6.85;;;-0.30;99.90;;;;;;7397261;19;20297;-80
2021/12/07 03:36:20;;;;;;;9.20;7.63;;;-0.40;99.90;;;;;;7395325;19;20317;-81
2021/12/07 03:38:47;;;;;;;7.30;6.60;;;-0.40;99.90;;;;;;7397054;19;20332;-81
2021/12/07 03:41:12;;;;;;;7.22;6.22;;;-0.40;99.90;;;;;;7401109;19;20300;-80
2021/12/07 03:43:38;;;;;;;6.35;5.75;;;-0.40;99.90;;;;;;7399692;19;20332;-84
2021/12/07 03:46:05;;;;;;;9.00;8.05;;;-0.40;99.90;;;;;;7395532;19;20349;-82
2021/12/07 03:48:31;;;;;;;9.43;6.50;;;-0.50;99.90;;;;;;7403655;19;20844;-81
2021/12/07 03:50:56;;;;;;;9.97;7.20;;;-0.50;99.90;;;;;;7399005;19;20418;-83
2021/12/07 03:53:23;;;;;;;8.30;7.32;;;-0.50;99.90;;;;;;7399924;19;20369;-81
2021/12/07 03:55:49;;;;;;;5.85;5.25;;;-0.50;99.90;;;;;;7397307;19;21747;-81
2021/12/07 03:58:15;;;;;;;15.63;7.13;;;-0.60;99.90;;;;;;7393623;19;20316;-81
2021/12/07 04:00:43;;;;;;;7.40;6.55;;;-0.70;99.90;;;;;;7394171;19;20304;-82
2021/12/07 04:03:11;;;;;;;7.60;5.78;;;-0.70;99.90;;;;;;7396393;19;20825;-82
2021/12/07 04:05:44;;;;;;;8.87;6.70;;;-0.70;99.90;;;;;;7396697;19;20304;-83
2021/12/07 04:08:16;;;;;;;8.38;6.18;;;-0.70;99.90;;;;;;7391072;19;20312;-81
2021/12/07 04:10:41;;;;;;;8.15;6.25;;;-0.80;99.90;;;;;;7391713;19;20316;-81
2021/12/07 04:13:07;;;;;;;7.22;6.50;;;-0.80;99.90;;;;;;7393602;19;20308;-85
2021/12/07 04:15:33;;;;;;;7.43;6.07;;;-0.80;99.90;;;;;;7394097;19;20305;-80
2021/12/07 04:17:59;;;;;;;7.50;6.70;;;-0.80;99.90;;;;;;7396120;19;20333;-82
2021/12/07 04:20:25;;;;;;;9.40;7.35;;;-0.90;99.90;;;;;;7390400;19;20333;-82
2021/12/07 04:22:50;;;;;;;8.45;7.03;;;-0.80;99.90;;;;;;7393394;19;20346;-81
2021/12/07 04:25:17;;;;;;;8.53;7.10;;;-1.00;99.90;;;;;;7392968;19;21014;-82
2021/12/07 04:27:44;;;;;;;8.00;6.28;;;-1.00;99.90;;;;;;7390682;19;20323;-83
2021/12/07 04:30:12;;;;;;;6.70;5.97;;;-1.00;99.90;;;;;;7392706;19;20311;-82
2021/12/07 04:32:38;;;;;;;9.88;7.65;;;-1.00;99.90;;;;;;7393919;19;20331;-81
2021/12/07 04:35:04;;;;;;;7.22;6.25;;;-1.00;99.90;;;;;;7392459;19;20309;-81
2021/12/07 04:37:30;;;;;;;6.50;5.17;;;-1.00;99.90;;;;;;7393015;19;20321;-85
2021/12/07 04:39:56;;;;;;;7.90;6.63;;;-1.00;99.90;;;;;;7393235;19;20316;-81
2021/12/07 04:42:23;;;;;;;11.25;7.72;;;-0.90;99.90;;;;;;7392626;19;20851;-83
2021/12/07 04:44:53;;;;;;;7.50;6.68;;;-1.10;99.90;;;;;;7400768;19;20305;-81
2021/12/07 04:47:36;;;;;;;8.48;6.88;;;-1.00;99.90;;;;;;7399363;19;20840;-81
2021/12/07 04:58:25;;;;;;;7.07;5.80;;;-1.00;99.90;;;;;;7296848;19;2004456;-82
2021/12/07 05:00:51;;;;;;;8.93;6.60;;;-1.00;99.90;;;;;;7400563;19;20325;-81
2021/12/07 05:03:17;;;;;;;9.15;6.15;;;-1.10;99.90;;;;;;7398712;19;20329;-84
2021/12/07 05:05:48;;;;;;;7.57;5.80;;;-1.20;99.90;;;;;;7406972;19;20311;-79
2021/12/07 05:08:21;;;;;;;7.57;6.30;;;-1.20;99.90;;;;;;7404746;19;20381;-81
2021/12/07 05:11:22;;;;;;;6.55;5.85;;;-1.20;99.90;;;;;;7384219;19;20312;-81
2021/12/07 05:17:01;;;;;;;12.00;7.55;;;-1.20;99.90;;;;;;7302827;19;2004610;-83
2021/12/07 05:39:28;;;;;;;8.77;7.43;;;-1.60;99.90;;;;;;7287143;19;2004328;-82
2021/12/07 05:46:15;;;;;;;14.17;9.07;;;-1.60;99.90;;;;;;7244919;19;2004418;-82
2021/12/07 05:52:19;;;;;;;13.20;9.90;;;-1.60;99.90;;;;;;7323023;19;20625;-80
2021/12/07 05:57:56;;;;;;;11.32;9.38;;;-1.60;99.90;;;;;;7376601;19;20994;-81
2021/12/07 06:00:46;;;;;;;10.20;9.05;;;-1.60;99.90;;;;;;7393445;19;20312;-81
2021/12/07 06:04:38;;;;;;;10.95;9.07;;;-1.60;99.90;;;;;;7243617;19;2004416;-81
2021/12/07 06:07:20;;;;;;;11.38;9.18;;;-1.60;99.90;;;;;;7198442;19;2008877;-82
2021/12/07 06:16:16;;;;;;;12.38;9.98;;;-1.70;99.90;;;;;;7379151;19;20767;-81
2021/12/07 07:05:59;;;;;;;13.50;11.18;;;-1.60;99.90;;;;;;7319588;19;20388;-87
2021/12/07 07:08:52;;;;;;;12.93;10.70;;;-1.60;99.90;;;;;;7420528;19;20368;-84
2021/12/07 07:12:05;;;;;;;11.90;10.63;;;-1.60;99.90;;;;;;7258131;19;2004195;-83
2021/12/07 10:01:05;;;;;;;14.07;10.75;;;0.20;99.90;;;;;;7381040;19;20321;-89
2021/12/07 10:34:04;;;;;;;15.03;12.07;;;0.40;99.90;;;;;;7403916;19;20304;-89
2021/12/07 10:36:35;;;;;;;17.73;11.73;;;0.50;99.90;;;;;;7423654;19;20299;-86
2021/12/07 10:39:12;;;;;;;13.38;11.05;;;0.50;99.90;;;;;;7423996;19;20325;-88
2021/12/07 10:50:28;;;;;;;15.50;11.07;;;0.60;99.90;;;;;;7408961;19;20340;-86
2021/12/07 10:52:56;;;;;;;16.50;11.63;;;0.70;99.90;;;;;;7423933;19;20309;-83
2021/12/07 10:55:23;;;;;;;16.20;11.60;;;0.80;99.90;;;;;;7412043;19;20562;-87
2021/12/07 10:57:55;;;;;;;14.98;12.43;;;0.80;99.90;;;;;;7403272;19;20339;-89
2021/12/07 11:00:27;;;;;;;15.90;12.20;;;0.70;99.90;;;;;;7401154;19;20446;-88
2021/12/07 11:03:11;;;;;;;18.92;13.02;;;0.80;99.90;;;;;;7421087;19;20320;-89
2021/12/07 11:37:56;;;;;;;14.20;11.27;;;0.70;99.90;;;;;;7297305;19;21339;-78
2021/12/07 11:40:55;;;;;;;15.57;11.53;;;0.80;99.90;;;;;;7415751;19;20341;-79
2021/12/07 11:43:22;;;;;;;17.27;12.85;;;0.90;99.90;;;;;;7282374;19;2004290;-79
2021/12/07 11:57:54;;;;;;;16.80;10.88;;;1.10;99.90;;;;;;7345294;19;20352;-80
2021/12/07 12:03:40;;;;;;;14.73;12.45;;;1.00;99.90;;;;;;7296860;19;20336;-81
2021/12/07 12:18:19;;;;;;;16.38;11.95;;;1.00;99.90;;;;;;7363579;19;20348;-81
2021/12/07 12:21:22;;;;;;;17.67;11.43;;;1.10;99.90;;;;;;7359666;19;20339;-80
2021/12/07 12:24:36;;;;;;;17.83;12.15;;;1.00;99.90;;;;;;7294938;19;2004413;-80
2021/12/07 12:27:13;;;;;;;15.13;11.93;;;1.10;99.90;;;;;;7416411;19;20380;-80
2021/12/07 12:29:39;;;;;;;16.20;12.30;;;1.10;99.90;;;;;;7394787;19;20324;-80
2021/12/07 12:32:07;;;;;;;16.50;11.93;;;1.10;99.90;;;;;;7417827;19;20297;-78
2021/12/07 12:34:36;;;;;;;14.70;11.50;;;1.10;99.90;;;;;;7416124;19;20332;-79
2021/12/07 12:37:17;;;;;;;12.93;9.77;;;1.10;99.90;;;;;;7416499;19;20335;-79
2021/12/07 12:40:04;;;;;;;15.15;11.57;;;1.20;99.90;;;;;;7415743;19;20309;-80
2021/12/07 12:42:42;;;;;;;13.52;10.88;;;1.20;99.90;;;;;;7406738;19;20297;-80
2021/12/07 12:45:46;;;;;;;16.97;11.97;;;1.20;99.90;;;;;;7313774;19;2004381;-80
2021/12/07 12:48:19;;;;;;;14.90;10.90;;;1.10;99.90;;;;;;7316221;19;2004081;-80
2021/12/07 12:50:51;;;;;;;14.00;10.93;;;1.10;99.90;;;;;;7415985;19;20333;-80
2021/12/07 12:53:52;;;;;;;19.23;12.60;;;1.10;99.90;;;;;;7418298;19;20320;-79
2021/12/07 12:56:48;;;;;;;14.80;11.18;;;1.00;99.90;;;;;;7273281;19;2004332;-79
2021/12/07 12:59:30;;;;;;;13.85;10.50;;;0.90;99.90;;;;;;7398061;19;20325;-80
2021/12/07 13:08:13;;;;;;;15.25;11.98;;;0.70;99.90;;;;;;7427340;19;20317;-89
2021/12/07 13:10:59;;;;;;;13.63;11.00;;;0.80;99.90;;;;;;7423767;19;20332;-89
2021/12/07 13:13:34;;;;;;;12.63;10.52;;;0.80;99.90;;;;;;7427139;19;20313;-87
2021/12/07 13:16:13;;;;;;;13.80;10.73;;;0.70;99.90;;;;;;7424987;19;20321;-83
2021/12/07 13:18:40;;;;;;;13.63;10.68;;;0.70;99.90;;;;;;7426235;19;20360;-83
2021/12/07 13:21:26;;;;;;;15.75;10.77;;;0.70;99.90;;;;;;7425710;19;20336;-86
2021/12/07 13:24:02;;;;;;;11.50;10.23;;;0.70;99.90;;;;;;7424345;19;20317;-89
2021/12/07 13:26:39;;;;;;;16.92;11.38;;;0.70;99.90;;;;;;7425123;19;20384;-84
2021/12/07 13:29:11;;;;;;;14.27;10.98;;;0.70;99.90;;;;;;7424655;19;20339;-84
2021/12/07 13:31:41;;;;;;;14.93;10.93;;;0.70;99.90;;;;;;7404457;19;20328;-84
2021/12/07 13:34:08;;;;;;;13.68;10.40;;;0.70;99.90;;;;;;7424901;19;20360;-87
2021/12/07 13:36:58;;;;;;;14.20;10.97;;;0.80;99.90;;;;;;7412473;19;20297;-84
2021/12/07 13:39:23;;;;;;;11.43;9.40;;;0.80;99.90;;;;;;7319333;19;2006403;-86
2021/12/07 13:41:58;;;;;;;10.88;9.68;;;0.80;99.90;;;;;;7405981;19;20384;-86
2021/12/07 13:44:26;;;;;;;13.82;9.73;;;0.80;99.90;;;;;;7424543;19;20341;-88
2021/12/07 13:46:56;;;;;;;12.15;9.43;;;0.70;99.90;;;;;;7403146;19;20313;-83
2021/12/07 13:49:25;;;;;;;13.27;10.40;;;0.70;99.90;;;;;;7422041;19;21216;-86
2021/12/07 13:51:57;;;;;;;12.40;10.40;;;0.70;99.90;;;;;;7425113;19;20325;-87
2021/12/07 13:54:25;;;;;;;12.17;9.17;;;0.70;99.90;;;;;;7426934;19;20353;-87
2021/12/07 13:56:55;;;;;;;10.95;9.18;;;0.70;99.90;;;;;;7420278;19;20351;-88
2021/12/07 13:59:23;;;;;;;15.48;10.50;;;0.70;99.90;;;;;;7424604;19;20434;-86
2021/12/07 14:01:56;;;;;;;14.95;10.52;;;0.70;99.90;;;;;;7425971;19;20319;-85
2021/12/07 14:04:26;;;;;;;14.93;10.57;;;0.60;99.90;;;;;;7425679;19;20645;-84
2021/12/07 14:06:52;;;;;;;14.90;10.27;;;0.60;99.90;;;;;;7424136;19;20391;-82
2021/12/07 14:09:26;;;;;;;15.02;10.82;;;0.60;99.90;;;;;;7397367;19;20321;-80
2021/12/07 14:11:54;;;;;;;13.45;11.00;;;0.50;99.90;;;;;;7319956;19;2005279;-80
2021/12/07 14:14:21;;;;;;;11.00;9.90;;;0.70;99.90;;;;;;7398335;19;20375;-79
2021/12/07 14:16:56;;;;;;;9.70;8.70;;;0.70;99.90;;;;;;7401177;19;20353;-79
2021/12/07 14:19:23;;;;;;;14.77;10.75;;;0.70;99.90;;;;;;7422200;19;20329;-79
2021/12/07 14:21:51;;;;;;;11.60;9.60;;;0.70;99.90;;;;;;7377382;19;20324;-79
2021/12/07 14:24:19;;;;;;;12.73;10.23;;;0.70;99.90;;;;;;7365089;19;20351;-79
2021/12/07 14:26:46;;;;;;;14.45;11.13;;;0.60;99.90;;;;;;7419475;19;20337;-79
2021/12/07 14:29:26;;;;;;;14.35;10.63;;;0.70;99.90;;;;;;7402596;19;20372;-80
2021/12/07 14:31:56;;;;;;;13.13;10.13;;;0.70;99.90;;;;;;7422452;19;20328;-80
2021/12/07 14:34:25;;;;;;;12.75;11.05;;;0.70;99.90;;;;;;7419169;19;20308;-79
2021/12/07 14:37:05;;;;;;;13.50;9.48;;;0.70;99.90;;;;;;7394940;19;20447;-80
2021/12/07 14:39:37;;;;;;;13.05;10.25;;;0.70;99.90;;;;;;7422467;19;20352;-80
2021/12/07 14:42:17;;;;;;;11.70;10.00;;;0.70;99.90;;;;;;7398339;19;20355;-79
2021/12/07 14:44:52;;;;;;;12.90;10.45;;;0.60;99.90;;;;;;7423181;19;20336;-79
2021/12/07 14:47:19;;;;;;;12.05;8.65;;;0.60;99.90;;;;;;7401333;19;20332;-79
2021/12/07 14:49:47;;;;;;;14.93;10.88;;;0.40;99.90;;;;;;7401129;19;20332;-79
2021/12/07 14:52:24;;;;;;;12.07;9.80;;;0.70;99.90;;;;;;7384732;19;20297;-79
2021/12/07 14:55:06;;;;;;;13.95;9.55;;;0.70;99.90;;;;;;7295783;19;2004495;-80
2021/12/07 14:57:36;;;;;;;14.35;10.93;;;0.60;99.90;;;;;;7422214;19;20373;-79
2021/12/07 15:00:51;;;;;;;13.60;10.90;;;0.60;99.90;;;;;;7400518;19;20302;-80
2021/12/07 15:03:26;;;;;;;17.33;12.85;;;0.60;99.90;;;;;;7319832;19;2004455;-79
2021/12/07 15:06:12;;;;;;;21.38;16.77;;;0.50;99.90;;;;;;7275953;19;2004306;-78
2021/12/07 15:08:47;;;;;;;18.23;12.60;;;0.40;99.90;;;;;;7265523;19;2004430;-78
2021/12/07 15:11:26;;;;;;;15.65;10.90;;;0.50;99.90;;;;;;7373661;19;20335;-78
2021/12/07 15:13:53;;;;;;;15.68;11.60;;;0.40;99.90;;;;;;7398515;19;20301;-79
2021/12/07 15:16:25;;;;;;;12.07;9.57;;;0.40;99.90;;;;;;7403629;19;20325;-79
2021/12/07 15:18:52;;;;;;;16.73;12.68;;;0.50;99.90;;;;;;7421480;19;20368;-80
2021/12/07 15:21:29;;;;;;;15.52;11.82;;;0.50;99.90;;;;;;7402409;19;20345;-80
2021/12/07 15:24:11;;;;;;;17.95;11.93;;;0.40;99.90;;;;;;7382321;19;20347;-79
2021/12/07 15:26:46;;;;;;;15.52;12.55;;;0.30;99.90;;;;;;7390704;19;20333;-79
2021/12/07 15:29:26;;;;;;;15.13;12.07;;;0.30;99.90;;;;;;7372731;19;20336;-78
2021/12/07 15:32:01;;;;;;;21.98;13.25;;;0.30;99.90;;;;;;7386069;19;20319;-80
2021/12/07 15:34:39;;;;;;;15.63;12.07;;;0.20;99.90;;;;;;7389051;19;20352;-81
2021/12/07 15:37:34;;;;;;;;;;;;;;;;;;;;;
2021/12/07 15:40:15;;;;;;;11.63;10.45;;;0.20;99.90;;;;;;7265252;19;2004318;-79
2021/12/07 15:42:49;;;;;;;13.60;11.45;;;0.20;99.90;;;;;;7358869;19;20344;-79
2021/12/07 15:45:18;;;;;;;13.63;11.27;;;0.10;99.90;;;;;;7268363;19;2004577;-79
2021/12/07 15:47:59;;;;;;;21.02;11.32;;;0.20;99.90;;;;;;7409855;19;20325;-79
2021/12/07 15:50:37;;;;;;;14.27;11.80;;;0.20;99.90;;;;;;7377017;19;20336;-80
2021/12/07 15:53:09;;;;;;;14.65;11.10;;;0.10;99.90;;;;;;7327680;19;20340;-78
2021/12/07 15:55:56;;;;;;;12.75;10.70;;;0.20;99.90;;;;;;7361671;19;20364;-86
2021/12/07 15:58:29;;;;;;;15.23;11.45;;;0.00;99.90;;;;;;7404644;19;20328;-80
2021/12/07 16:01:51;;;;;;;12.38;10.75;;;0.10;99.90;;;;;;7181970;19;2004582;-80
2021/12/07 16:04:30;;;;;;;15.70;11.95;;;0.10;99.90;;;;;;7168208;19;2004253;-78
2021/12/07 16:07:24;;;;;;;12.85;11.00;;;0.20;99.90;;;;;;7329862;19;20331;-80
2021/12/07 16:10:16;;;;;;;18.92;12.65;;;0.20;99.90;;;;;;7258716;19;2004093;-79
2021/12/07 16:13:05;;;;;;;16.80;10.43;;;0.10;99.90;;;;;;7292373;19;2004175;-80
2021/12/07 16:15:42;;;;;;;19.85;12.95;;;0.10;99.90;;;;;;7352563;19;20297;-81
2021/12/07 16:18:21;;;;;;;16.52;11.75;;;0.20;99.90;;;;;;7368845;19;20329;-79
2021/12/07 16:21:05;;;;;;;18.83;13.15;;;0.10;99.90;;;;;;7265629;19;2004380;-79
2021/12/07 16:23:36;;;;;;;23.95;13.80;;;0.20;99.90;;;;;;7417240;19;20300;-79
2021/12/07 16:26:09;;;;;;;20.58;15.43;;;0.20;99.90;;;;;;7413184;19;20333;-79
2021/12/07 16:28:41;;;;;;;14.85;12.50;;;0.20;99.90;;;;;;7408856;19;20382;-79
2021/12/07 16:31:08;;;;;;;15.93;11.70;;;0.20;99.90;;;;;;7391094;19;20328;-79
2021/12/07 16:33:35;;;;;;;13.50;11.45;;;0.20;99.90;;;;;;7397753;19;20304;-79
2021/12/07 16:36:05;;;;;;;16.20;11.80;;;0.20;99.90;;;;;;7388968;19;20333;-79
2021/12/07 16:38:34;;;;;;;20.30;12.00;;;0.20;99.90;;;;;;7409322;19;20341;-78
2021/12/07 16:41:00;;;;;;;16.38;11.65;;;0.20;99.90;;;;;;7393460;19;20312;-79
2021/12/07 16:43:28;;;;;;;16.95;12.45;;;0.20;99.90;;;;;;7388807;19;20325;-79
2021/12/07 16:46:10;;;;;;;12.82;10.68;;;0.10;99.90;;;;;;7390432;19;20349;-79
2021/12/07 16:48:37;;;;;;;13.60;11.10;;;0.10;99.90;;;;;;7406057;19;20360;-79
2021/12/07 16:51:08;;;;;;;14.17;11.30;;;0.10;99.90;;;;;;7387115;19;20325;-79
2021/12/07 16:53:38;;;;;;;18.30;12.35;;;0.10;99.90;;;;;;7378263;19;20328;-79
2021/12/07 16:56:06;;;;;;;15.93;10.93;;;0.10;99.90;;;;;;7387529;19;20324;-80
2021/12/07 16:58:58;;;;;;;11.87;9.63;;;0.00;99.90;;;;;;7396893;19;20389;-79
2021/12/07 17:01:37;;;;;;;13.85;11.07;;;0.10;99.90;;;;;;7278481;19;2004413;-80
2021/12/07 17:04:07;;;;;;;16.48;11.60;;;-0.10;99.90;;;;;;7274711;19;2004325;-79
2021/12/07 17:06:41;;;;;;;20.50;11.68;;;-0.10;99.90;;;;;;7325973;19;20383;-78
2021/12/07 17:09:10;;;;;;;16.73;11.48;;;-0.20;99.90;;;;;;7397445;19;20344;-78
2021/12/07 17:11:59;;;;;;;14.95;11.02;;;-0.10;99.90;;;;;;7405570;19;20356;-80
2021/12/07 17:15:00;;;;;;;12.77;10.85;;;0.10;99.90;;;;;;7321243;19;20344;-78
2021/12/07 17:17:38;;;;;;;17.05;11.27;;;-0.20;99.90;;;;;;7319676;19;20419;-78
2021/12/07 17:20:16;;;;;;;16.08;10.88;;;0.00;99.90;;;;;;7372363;19;20309;-80
2021/12/07 17:22:55;;;;;;;14.93;11.15;;;0.00;99.90;;;;;;7364256;19;20302;-79
2021/12/07 17:25:27;;;;;;;18.92;10.57;;;-0.20;99.90;;;;;;7341952;19;20351;-79
2021/12/07 17:28:18;;;;;;;18.35;12.60;;;0.10;99.90;;;;;;7304162;19;20317;-79
2021/12/07 17:34:08;;;;;;;15.63;11.30;;;0.00;99.90;;;;;;7168096;19;2004406;-78
2021/12/07 17:36:51;;;;;;;13.73;11.27;;;0.00;99.90;;;;;;7385803;19;20721;-79
2021/12/07 17:40:16;;;;;;;14.07;10.57;;;-0.10;99.90;;;;;;7355785;19;20701;-79
2021/12/07 17:43:33;;;;;;;13.37;10.23;;;0.00;99.90;;;;;;7398979;19;20766;-79
2021/12/07 17:49:43;;;;;;;15.45;10.70;;;0.00;99.90;;;;;;7346462;19;20375;-79
2021/12/07 17:56:46;;;;;;;14.13;11.40;;;-0.10;99.90;;;;;;7403058;19;20385;-79
2021/12/07 18:04:16;;;;;;;10.82;9.70;;;0.00;99.90;;;;;;7408818;19;20344;-79
2021/12/07 18:07:16;;;;;;;15.07;11.20;;;-0.10;99.90;;;;;;7405075;19;20374;-80
2021/12/07 18:17:20;;;;;;;13.40;10.90;;;-0.20;99.90;;;;;;7405714;19;20369;-80
2021/12/07 18:20:02;;;;;;;16.00;11.20;;;-0.10;99.90;;;;;;7399270;19;20444;-81
2021/12/07 18:29:32;;;;;;;16.50;10.27;;;-0.10;99.90;;;;;;7370836;19;20877;-79
2021/12/07 18:45:08;;;;;;;15.02;9.70;;;-0.10;99.90;;;;;;7389578;19;20316;-81
2021/12/07 18:47:34;;;;;;;14.45;10.40;;;-0.10;99.90;;;;;;7393163;19;20903;-80
2021/12/07 18:50:00;;;;;;;12.40;10.30;;;-0.10;99.90;;;;;;7392070;19;20348;-80
2021/12/07 18:52:26;;;;;;;17.50;9.53;;;-0.20;99.90;;;;;;7366061;19;20316;-79
2021/12/07 18:54:59;;;;;;;13.98;9.98;;;-0.10;99.90;;;;;;7390801;19;20380;-79
2021/12/07 18:57:41;;;;;;;16.05;11.68;;;-0.20;99.90;;;;;;7284805;19;2004516;-80
2021/12/07 19:00:13;;;;;;;13.55;10.55;;;-0.30;99.90;;;;;;7386039;19;20677;-81
2021/12/07 19:02:43;;;;;;;17.50;10.55;;;-0.20;99.90;;;;;;7268941;19;2004394;-83
2021/12/07 19:05:13;;;;;;;14.50;10.87;;;-0.20;99.90;;;;;;7369743;19;20348;-82
2021/12/07 19:10:42;;;;;;;12.77;9.87;;;-0.30;99.90;;;;;;7379534;19;20319;-78
2021/12/07 19:13:12;;;;;;;14.65;9.82;;;-0.30;99.90;;;;;;7401299;19;20815;-82
2021/12/07 19:16:20;;;;;;;12.93;9.95;;;-0.30;99.90;;;;;;7294704;19;20440;-79
2021/12/07 19:18:54;;;;;;;11.13;9.60;;;-0.30;99.90;;;;;;7232770;19;2004383;-79
2021/12/07 19:21:26;;;;;;;14.63;10.77;;;-0.30;99.90;;;;;;7387328;19;20367;-80
2021/12/07 19:23:52;;;;;;;14.82;10.10;;;-0.30;99.90;;;;;;7383405;19;20375;-82
2021/12/07 19:26:34;;;;;;;18.92;12.00;;;-0.30;99.90;;;;;;7364309;19;20341;-82
2021/12/07 19:29:20;;;;;;;14.57;10.50;;;-0.30;99.90;;;;;;7382441;19;20316;-83
2021/12/07 19:31:57;;;;;;;15.40;10.48;;;-0.30;99.90;;;;;;7378707;19;20345;-81
2021/12/07 19:34:24;;;;;;;12.63;10.13;;;-0.20;99.90;;;;;;7392446;19;20349;-82
2021/12/07 19:36:50;;;;;;;15.43;11.85;;;-0.30;99.90;;;;;;7387969;19;20316;-81
2021/12/07 19:39:23;;;;;;;11.95;10.55;;;-0.30;99.90;;;;;;7386533;19;20336;-81
2021/12/07 19:41:49;;;;;;;17.50;13.00;;;-0.30;99.90;;;;;;7358358;19;20336;-82
2021/12/07 19:44:19;;;;;;;22.87;12.90;;;-0.40;99.90;;;;;;7368868;19;20392;-81
2021/12/07 19:46:48;;;;;;;18.85;12.95;;;-0.40;99.90;;;;;;7389896;19;20320;-81
2021/12/07 19:49:29;;;;;;;16.17;11.93;;;-0.40;99.90;;;;;;7282244;19;2004422;-81
2021/12/07 19:51:54;;;;;;;15.48;12.35;;;-0.40;99.90;;;;;;7369626;19;20345;-81
2021/12/07 19:54:23;;;;;;;15.55;12.52;;;-0.30;99.90;;;;;;7391992;19;20316;-81
2021/12/07 19:56:52;;;;;;;21.85;13.25;;;-0.30;99.90;;;;;;7391535;19;20305;-82
2021/12/07 19:59:20;;;;;;;19.48;13.23;;;-0.30;99.90;;;;;;7390630;19;20382;-81
2021/12/07 20:01:47;;;;;;;19.03;12.27;;;-0.30;99.90;;;;;;7389741;19;20852;-84
2021/12/07 20:04:13;;;;;;;19.83;12.75;;;-0.40;99.90;;;;;;7343821;19;20312;-84
2021/12/07 20:06:40;;;;;;;18.83;13.25;;;-0.40;99.90;;;;;;7387664;19;20328;-81
2021/12/07 20:09:11;;;;;;;16.38;12.82;;;-0.40;99.90;;;;;;7352017;19;20381;-81
2021/12/07 20:11:39;;;;;;;17.90;12.73;;;-0.40;99.90;;;;;;7244101;19;20891;-83
2021/12/07 20:14:18;;;;;;;20.90;13.23;;;-0.50;99.90;;;;;;7347188;19;20320;-81
2021/12/07 20:16:54;;;;;;;22.17;13.27;;;-0.40;99.90;;;;;;7384342;19;20364;-82
2021/12/07 20:20:06;;;;;;;17.90;12.15;;;-0.30;99.90;;;;;;7294210;19;20355;-82
2021/12/07 20:22:45;;;;;;;19.27;12.23;;;-0.40;99.90;;;;;;7291901;19;2004462;-82
2021/12/07 20:28:44;;;;;;;13.50;10.55;;;-0.50;99.90;;;;;;7274373;19;2004296;-83
2021/12/07 20:31:11;;;;;;;17.77;11.53;;;-0.30;99.90;;;;;;7390615;19;20317;-81
2021/12/07 20:33:55;;;;;;;14.30;11.13;;;-0.40;99.90;;;;;;7367482;19;20340;-80
2021/12/07 20:36:46;;;;;;;15.65;10.77;;;-0.50;99.90;;;;;;7222038;19;2004438;-83
2021/12/07 20:39:17;;;;;;;15.23;10.88;;;-0.50;99.90;;;;;;7374221;19;20376;-80
2021/12/07 20:45:27;;;;;;;14.57;10.73;;;-0.50;99.90;;;;;;7370107;19;20332;-81
2021/12/07 20:49:16;;;;;;;17.77;11.82;;;-0.50;99.90;;;;;;7340466;19;20356;-82
2021/12/07 20:52:03;;;;;;;12.88;9.88;;;-0.50;99.90;;;;;;7180925;19;2004454;-88
2021/12/07 20:54:35;;;;;;;12.45;9.60;;;-0.40;99.90;;;;;;7399755;19;20361;-81
2021/12/07 20:57:04;;;;;;;11.57;9.60;;;-0.40;99.90;;;;;;7410672;19;20848;-82
2021/12/07 21:00:07;;;;;;;14.90;10.23;;;-0.30;99.90;;;;;;7252934;19;2009210;-81
2021/12/07 21:02:33;;;;;;;18.02;10.48;;;-0.30;99.90;;;;;;7399086;19;20357;-83
2021/12/07 21:04:59;;;;;;;11.38;10.07;;;-0.30;99.90;;;;;;7399879;19;20388;-82